Latest Weather Observations for Tasman Island

IDT60901

Issued at 3:11 pm EST Tuesday 30 June 2015 (issued every 10 minutes, with the page automatically refreshed every 10 minutes)

About weather observations | Map of Hobart area stations | Latest observations for Hobart area | Other Formats
Station Details ID: 094155 Name: TASMAN ISLAND Lat: -43.24 Lon: 148.00 Height: 240.0 m
Data from the previous 72 hours. | See also: Recent months at Tasman Island
Date/Time
EST
Tmp

°C
App
Tmp
°C
Dew
Point
°C
Rel
Hum
%
Delta-T

°C
Wind Press
QNH
hPa
Press
MSL
hPa
Rain
since
9 am
mm
Dir
 
Spd
km/h
Gust
km/h
Spd
kts
Gust
kts
30/03:00pm 11.3 8.9 5.2 66 2.8 WNW 7 20 4 11 1022.2 1022.6 0.0
30/02:30pm 11.3 9.1 5.2 66 2.8 NE 6 20 3 11 1022.2 1022.6 0.0
30/02:00pm 11.8 9.7 5.9 67 2.8 ENE 6 19 3 10 1022.4 1022.8 0.0
30/01:30pm 11.1 7.9 5.2 67 2.7 W 11 24 6 13 1022.6 1023.0 0.0
30/01:00pm 11.4 9.1 5.5 67 2.7 W 7 20 4 11 1022.9 1023.3 0.0
30/12:30pm 10.7 7.9 5.0 68 2.6 W 9 22 5 12 1023.0 1023.4 0.0
30/12:00pm 10.9 7.7 5.2 68 2.6 WNW 11 24 6 13 1023.3 1023.6 0.0
30/11:30am 10.6 7.5 5.4 70 2.4 WNW 11 24 6 13 1023.6 1023.9 0.0
30/11:00am 10.8 8.5 4.9 67 2.7 WNW 6 22 3 12 1024.1 1024.4 0.0
30/10:30am 10.8 8.6 5.3 69 2.5 W 6 22 3 12 1024.2 1024.5 0.0
30/10:00am 10.4 8.2 5.4 71 2.3 WNW 6 20 3 11 1024.1 1024.4 0.0
30/09:30am 10.1 7.3 5.3 72 2.2 NNE 9 32 5 17 1023.6 1023.9 0.0
30/09:00am 9.5 4.7 4.9 73 2.1 W 19 33 10 18 1023.9 1024.2 -
30/08:30am 9.4 6.9 4.6 72 2.2 SSE 7 30 4 16 1023.7 1024.0 -
30/08:00am 9.1 6.2 4.7 74 2.0 E 9 28 5 15 1022.9 1023.3 -
30/07:30am 8.9 1.3 3.9 71 2.2 W 33 54 18 29 1022.7 1023.1 -
30/07:24am 9.0 2.4 4.2 72 2.1 W 28 48 15 26 1022.9 1023.3 -
30/07:00am 9.0 3.9 4.0 71 2.2 W 20 39 11 21 1023.3 1023.6 -
30/06:30am 9.0 5.5 3.4 68 2.4 WNW 11 30 6 16 1022.4 1022.8 -
30/06:10am 9.1 1.6 3.5 68 2.4 W 32 54 17 29 1022.2 1022.6 -
30/06:00am 9.0 1.5 3.6 69 2.4 W 32 43 17 23 1022.4 1022.8 -
30/05:30am 8.5 2.1 3.4 70 2.2 W 26 35 14 19 1022.4 1022.8 -
30/05:00am 8.6 4.6 3.0 68 2.4 WNW 13 30 7 16 1022.4 1022.8 -
30/04:30am 8.5 4.2 3.1 69 2.3 WNW 15 30 8 16 1022.3 1022.7 -
30/04:00am 8.6 4.3 3.2 69 2.3 WNW 15 32 8 17 1022.5 1022.9 -
30/03:30am 8.7 4.4 3.1 68 2.4 WNW 15 30 8 16 1022.6 1023.0 -
30/03:00am 8.6 3.9 3.0 68 2.4 WNW 17 30 9 16 1022.7 1023.1 0.0
30/02:30am 8.3 4.4 3.4 71 2.1 WNW 13 24 7 13 1022.7 1023.1 -
30/02:00am 8.6 5.1 3.4 70 2.3 WNW 11 24 6 13 1022.8 1023.2 -
30/01:30am 8.7 3.6 3.3 69 2.3 WNW 19 28 10 15 1023.0 1023.4 -
30/01:00am 8.9 3.3 3.7 70 2.3 NW 22 43 12 23 1022.7 1023.1 -
30/12:30am 9.2 3.3 4.0 70 2.3 NW 24 37 13 20 1022.7 1023.1 -
30/12:00am 9.1 4.0 4.3 72 2.1 W 20 35 11 19 1022.7 1023.1 -
 
Date/Time
EST
Tmp

°C
App
Tmp
°C
Dew
Point
°C
Rel
Hum
%
Delta-T

°C
Wind Press
QNH
hPa
Press
MSL
hPa
Rain
since
9 am
mm
Dir
 
Spd
km/h
Gust
km/h
Spd
kts
Gust
kts
29/11:30pm 9.5 5.0 4.1 69 2.4 W 17 35 9 19 1022.8 1023.2 -
29/11:00pm 10.0 5.7 3.3 63 2.9 WNW 15 39 8 21 1023.0 1023.4 -
29/10:30pm 9.6 6.5 3.8 67 2.6 W 9 24 5 13 1023.2 1023.5 -
29/10:00pm 9.3 5.9 3.9 69 2.4 WNW 11 24 6 13 1023.3 1023.6 -
29/09:30pm 9.6 5.1 4.0 68 2.5 WNW 17 30 9 16 1023.6 1023.9 -
29/09:00pm 10.0 6.6 4.2 67 2.6 WNW 11 26 6 14 1023.6 1023.9 -
29/08:30pm 10.0 6.6 4.2 67 2.6 NW 11 20 6 11 1023.7 1024.0 -
29/08:00pm 10.4 7.0 4.1 65 2.8 WNW 11 24 6 13 1023.4 1023.7 -
29/07:30pm 10.9 7.9 3.9 62 3.1 WNW 9 30 5 16 1023.0 1023.4 -
29/07:00pm 11.0 7.3 4.2 63 3.1 WNW 13 35 7 19 1023.2 1023.5 -
29/06:30pm 10.7 7.0 4.2 64 2.9 WNW 13 24 7 13 1023.5 1023.8 -
29/06:00pm 11.1 6.2 4.1 62 3.2 WNW 19 35 10 19 1023.3 1023.6 -
29/05:30pm 11.3 7.2 4.5 63 3.1 WNW 15 24 8 13 1023.4 1023.7 -
29/05:00pm 11.1 8.5 4.3 63 3.1 NW 7 15 4 8 1023.3 1023.6 -
29/04:30pm 11.2 9.0 5.5 68 2.7 NNW 6 9 3 5 1023.2 1023.5 -
29/04:00pm 12.4 9.2 5.3 62 3.3 W 11 20 6 11 1023.3 1023.6 -
29/03:30pm 12.5 - 5.4 62 3.3 - - - - - 1023.0 1023.4 -
29/03:00pm 12.9 10.1 5.3 60 3.6 W 9 17 5 9 1023.2 1023.5 -
29/02:30pm 13.2 9.7 5.6 60 3.6 W 13 19 7 10 1023.0 1023.4 -
29/02:00pm 13.4 10.4 5.8 60 3.6 WNW 11 17 6 9 1023.4 1023.7 -
29/01:30pm 13.4 10.6 5.3 58 3.8 NW 9 17 5 9 1023.5 1023.8 -
29/01:00pm 13.3 10.7 6.2 62 3.4 WNW 9 17 5 9 1023.6 1023.9 -
29/12:30pm 12.5 10.1 5.2 61 3.4 WNW 7 20 4 11 1023.8 1024.1 0.0
29/12:00pm 11.7 8.1 4.9 63 3.1 W 13 30 7 16 1024.0 1024.3 0.0
29/11:30am 11.6 8.5 5.5 66 2.9 W 11 28 6 15 1024.3 1024.6 0.0
29/11:00am 11.3 8.5 5.0 65 2.9 WNW 9 39 5 21 1024.6 1024.9 0.0
29/10:30am 11.1 5.9 5.4 68 2.7 W 22 41 12 22 1024.6 1024.9 0.0
29/10:00am 10.7 5.1 5.5 70 2.4 W 24 41 13 22 1024.6 1024.9 0.0
29/09:30am 10.4 5.1 4.8 68 2.6 WNW 22 43 12 23 1024.7 1025.0 0.0
29/09:00am 10.0 4.7 4.8 70 2.4 WNW 22 37 12 20 1024.6 1024.9 -
29/08:30am 9.9 6.6 4.7 70 2.4 WNW 11 33 6 18 1024.8 1025.1 -
29/08:00am 10.1 7.3 5.3 72 2.2 W 9 28 5 15 1024.7 1025.0 -
29/07:30am 9.7 6.0 4.7 71 2.3 WNW 13 28 7 15 1024.6 1024.9 -
29/07:00am 9.9 6.7 5.3 73 2.1 SW 11 33 6 18 1024.3 1024.6 -
29/06:30am 9.8 6.7 5.6 75 1.9 NE 11 32 6 17 1023.7 1024.0 -
29/06:00am 10.1 7.3 5.1 71 2.3 NW 9 32 5 17 1023.4 1023.7 -
29/05:30am 10.0 7.2 5.2 72 2.2 W 9 35 5 19 1023.5 1023.8 -
29/05:00am 10.0 7.7 5.8 75 1.9 W 7 32 4 17 1023.2 1023.5 -
29/04:30am 9.9 7.3 6.1 77 1.8 S 9 37 5 20 1022.9 1023.3 -
29/04:00am 10.0 7.0 6.0 76 1.9 NW 11 32 6 17 1022.6 1023.0 -
29/03:30am 10.2 7.2 5.8 74 2.1 NNW 11 32 6 17 1022.5 1022.9 -
29/03:00am 10.3 6.5 5.7 73 2.1 WNW 15 50 8 27 1022.4 1022.8 0.0
29/02:30am 10.3 7.0 6.5 77 1.8 WNW 13 35 7 19 1022.5 1022.9 -
29/02:00am 10.5 7.1 5.9 73 2.1 WNW 13 39 7 21 1022.3 1022.7 -
29/01:30am 10.6 6.2 6.4 75 2.0 WNW 19 50 10 27 1022.3 1022.7 -
29/01:00am 10.7 7.3 6.1 73 2.2 NNW 13 32 7 17 1022.2 1022.6 -
29/12:30am 10.7 8.1 5.9 72 2.3 NNW 9 37 5 20 1022.3 1022.7 -
29/12:00am 11.0 6.8 5.5 69 2.6 NW 17 43 9 23 1022.0 1022.4 -
 
Date/Time
EST
Tmp

°C
App
Tmp
°C
Dew
Point
°C
Rel
Hum
%
Delta-T

°C
Wind Press
QNH
hPa
Press
MSL
hPa
Rain
since
9 am
mm
Dir
 
Spd
km/h
Gust
km/h
Spd
kts
Gust
kts
28/11:30pm 11.2 7.3 5.5 68 2.7 NW 15 52 8 28 1022.0 1022.4 -
28/11:00pm 11.1 6.5 5.6 69 2.6 WNW 19 44 10 24 1022.2 1022.6 -
28/10:30pm 11.3 6.7 5.8 69 2.6 WNW 19 44 10 24 1022.5 1022.9 -
28/10:00pm 11.4 6.6 5.5 67 2.7 W 20 46 11 25 1022.5 1022.9 -
28/09:30pm 11.2 6.4 5.5 68 2.7 W 20 39 11 21 1022.6 1023.0 -
28/09:00pm 11.1 6.5 5.6 69 2.6 WNW 19 41 10 22 1022.3 1022.7 -
28/08:30pm 11.1 7.3 5.6 69 2.6 WNW 15 30 8 16 1022.4 1022.8 -
28/08:00pm 11.2 7.7 5.5 68 2.7 WSW 13 35 7 19 1022.3 1022.7 -
28/07:30pm 11.4 7.6 5.7 68 2.7 W 15 46 8 25 1021.9 1022.3 -
28/07:00pm 11.3 7.5 5.6 68 2.7 W 15 44 8 24 1021.8 1022.1 -
28/06:30pm 11.2 7.8 5.7 69 2.6 W 13 39 7 21 1021.5 1021.8 -
28/06:00pm 11.5 7.3 5.6 67 2.8 W 17 50 9 27 1021.1 1021.4 0.0
28/05:30pm 11.5 6.7 5.4 66 2.9 W 20 44 11 24 1020.9 1021.2 0.0
28/05:00pm 11.6 6.1 5.7 67 2.8 WNW 24 54 13 29 1021.0 1021.3 0.0
28/04:30pm 11.6 6.9 5.3 65 2.9 WNW 19 44 10 24 1020.9 1021.2 0.0
28/04:04pm 12.1 5.7 5.0 62 3.3 WNW 28 50 15 27 1021.0 1021.3 0.0
28/04:00pm 11.8 6.2 5.4 65 3.0 WNW 24 44 13 24 1020.8 1021.1 0.0
28/03:30pm 12.0 7.1 5.2 63 3.2 WNW 20 48 11 26 1020.9 1021.2 0.0
28/03:01pm 12.2 5.7 4.7 60 3.5 NW 28 54 15 29 1020.7 1021.0 0.0
28/03:00pm 12.3 6.2 4.8 60 3.5 WNW 26 54 14 29 1020.7 1021.0 0.0
28/02:30pm 12.3 5.9 5.0 61 3.4 WNW 28 57 15 31 1020.7 1021.0 0.0
28/02:29pm 12.3 6.6 4.8 60 3.5 WNW 24 57 13 31 1020.7 1021.0 0.0
28/02:00pm 12.3 8.7 5.2 62 3.3 WNW 13 33 7 18 1021.3 1021.6 0.0
28/01:30pm 12.0 7.0 4.7 61 3.4 WNW 20 41 11 22 1021.6 1021.9 0.0
28/01:00pm 11.9 6.6 5.1 63 3.2 WNW 22 48 12 26 1021.9 1022.3 0.0
28/12:38pm 11.8 5.4 5.0 63 3.2 WNW 28 46 15 25 1022.0 1022.4 0.0
28/12:30pm 11.7 6.0 4.9 63 3.1 WNW 24 48 13 26 1021.9 1022.3 0.0
28/12:00pm 11.3 5.2 4.7 64 3.0 WNW 26 46 14 25 1022.0 1022.4 0.0
28/11:34am 11.3 4.0 4.3 62 3.2 WNW 32 52 17 28 1022.3 1022.7 0.0
28/11:30am 11.3 4.3 4.1 61 3.3 WNW 30 44 16 24 1022.4 1022.8 0.0
28/11:13am 11.2 4.1 3.5 59 3.4 WNW 30 50 16 27 1022.7 1023.1 0.0
28/11:00am 11.0 3.5 3.3 59 3.4 WNW 32 44 17 24 1022.6 1023.0 0.0
28/10:30am 10.7 3.9 3.0 59 3.4 WNW 28 52 15 28 1022.8 1023.2 0.0
28/10:00am 10.2 4.5 3.0 61 3.1 WNW 22 48 12 26 1023.4 1023.7 0.0
28/09:40am 9.9 3.0 2.7 61 3.1 WNW 28 48 15 26 1023.3 1023.6 0.0
28/09:30am 9.9 4.2 3.0 62 3.0 WNW 22 57 12 31 1023.0 1023.4 0.0
28/09:00am 9.6 3.8 2.5 61 3.0 WNW 22 43 12 23 1023.2 1023.5 -
28/08:30am 9.3 3.1 1.9 60 3.1 WNW 24 52 13 28 1022.8 1023.2 -
28/08:00am 9.0 3.8 2.3 63 2.8 WNW 19 39 10 21 1022.9 1023.3 -
28/07:30am 9.0 3.3 2.6 64 2.7 WNW 22 44 12 24 1022.4 1022.8 -
28/07:00am 8.9 3.6 2.9 66 2.6 WNW 20 35 11 19 1022.4 1022.8 -
28/06:30am 8.9 2.5 3.1 67 2.5 WNW 26 37 14 20 1022.3 1022.7 -
28/06:00am 9.3 6.3 4.1 70 2.3 WSW 9 30 5 16 1022.2 1022.6 -
28/05:30am 9.3 6.1 3.3 66 2.6 E 9 20 5 11 1021.4 1021.7 -
28/05:00am 9.3 6.2 3.7 68 2.5 ENE 9 22 5 12 1021.4 1021.7 -
28/04:30am 9.4 6.7 5.8 78 1.7 WNW 9 28 5 15 1021.3 1021.6 -
28/04:00am 9.1 6.3 6.9 86 1.0 W 11 33 6 18 1021.4 1021.7 -
28/03:30am 8.7 5.7 7.6 93 0.5 NW 13 26 7 14 1021.5 1021.8 -
28/03:00am 8.8 5.8 7.6 92 0.6 SW 13 35 7 19 1021.2 1021.5 0.0
28/02:30am 9.4 4.1 7.0 85 1.1 SW 24 43 13 23 1021.1 1021.4 -
28/02:00am 8.8 2.6 8.0 95 0.4 SW 30 52 16 28 1020.6 1020.9 -
28/01:56am 9.1 4.2 8.3 95 0.4 SW 24 52 13 28 1020.6 1020.9 -
28/01:30am 10.8 7.4 5.8 71 2.3 W 13 33 7 18 1020.6 1020.9 -
28/01:00am 10.6 7.1 5.4 70 2.4 WNW 13 39 7 21 1020.2 1020.5 -
28/12:30am 10.5 6.2 5.1 69 2.5 WNW 17 37 9 20 1020.2 1020.5 -
28/12:00am 10.3 5.9 4.5 67 2.6 W 17 30 9 16 1020.3 1020.6 -
 
Date/Time
EST
Tmp

°C
App
Tmp
°C
Dew
Point
°C
Rel
Hum
%
Delta-T

°C
Wind Press
QNH
hPa
Press
MSL
hPa
Rain
since
9 am
mm
Dir
 
Spd
km/h
Gust
km/h
Spd
kts
Gust
kts
27/11:30pm 10.3 5.4 4.0 65 2.8 WNW 19 33 10 18 1020.3 1020.6 -
27/11:00pm 10.5 6.8 4.4 66 2.8 W 13 57 7 31 1019.7 1020.0 -
27/10:30pm 10.2 4.3 3.7 64 2.9 WNW 24 41 13 22 1019.8 1020.1 -
27/10:00pm 10.3 4.7 3.6 63 3.0 W 22 41 12 22 1019.9 1020.2 -
27/09:30pm 10.2 5.0 3.5 63 3.0 WNW 20 48 11 26 1019.4 1019.7 -
27/09:03pm 10.2 5.1 3.0 61 3.2 W 19 59 10 32 1018.9 1019.2 -
27/09:00pm 10.1 6.2 3.4 63 2.9 WNW 13 41 7 22 1019.0 1019.3 -
27/08:30pm 9.5 4.9 3.7 67 2.6 WNW 17 28 9 15 1019.5 1019.8 -
27/08:00pm 9.6 5.5 2.5 61 3.0 WNW 13 22 7 12 1019.9 1020.2 -
27/07:30pm 9.7 2.8 2.3 60 3.2 NW 28 43 15 23 1019.7 1020.0 -
27/07:00pm 10.2 1.5 1.8 56 3.6 NW 37 59 20 32 1019.1 1019.4 -
27/06:55pm 10.0 1.7 2.1 58 3.4 NW 35 54 19 29 1019.1 1019.4 -
27/06:30pm 10.2 1.8 1.8 56 3.6 NW 35 63 19 34 1019.0 1019.3 -
27/06:26pm 10.2 2.8 1.8 56 3.6 WNW 30 63 16 34 1018.9 1019.2 -
27/06:25pm 10.2 3.6 1.8 56 3.6 WNW 26 63 14 34 1018.9 1019.2 -
27/06:00pm 9.8 4.4 2.6 61 3.1 W 20 43 11 23 1019.2 1019.5 -
27/05:30pm 10.1 4.6 2.0 57 3.5 WNW 20 35 11 19 1019.5 1019.8 -
27/05:00pm 10.2 6.9 2.3 58 3.4 SW 9 28 5 15 1019.4 1019.7 -
27/04:30pm 10.4 4.6 2.5 58 3.4 WNW 22 44 12 24 1019.1 1019.4 -
27/04:00pm 11.0 6.1 1.8 53 3.9 WNW 17 48 9 26 1019.1 1019.4 -
27/03:30pm 11.3 7.6 2.1 53 4.0 WNW 11 28 6 15 1019.4 1019.7 -

Latest Capital City Observations: Canberra | Sydney | Melbourne | Brisbane | Adelaide | Perth | Hobart | Darwin

Other Formats:

Comma delimited format used in spreadsheet applications
http://www.bom.gov.au/fwo/IDT60901/IDT60901.95986.axf

JavaScript Object Notation format (JSON) in row-major order
http://www.bom.gov.au/fwo/IDT60901/IDT60901.95986.json